sensor_id;sensor_type;location;lat;lon;timestamp;pressure;altitude;pressure_sealevel;temperature;humidity
47240;BME280;32978;53.586;10.052;2023-02-03T00:02:29;101720.13;;;4.36;100.00
47240;BME280;32978;53.586;10.052;2023-02-03T00:07:25;101715.81;;;4.40;100.00
47240;BME280;32978;53.586;10.052;2023-02-03T00:12:22;101718.09;;;4.49;100.00
47240;BME280;32978;53.586;10.052;2023-02-03T00:17:18;101707.38;;;4.59;100.00
47240;BME280;32978;53.586;10.052;2023-02-03T00:22:15;101707.31;;;4.76;100.00
47240;BME280;32978;53.586;10.052;2023-02-03T00:27:11;101693.13;;;4.96;100.00
47240;BME280;32978;53.586;10.052;2023-02-03T00:32:08;101710.06;;;5.08;100.00
47240;BME280;32978;53.586;10.052;2023-02-03T00:37:04;101686.34;;;5.20;100.00
47240;BME280;32978;53.586;10.052;2023-02-03T00:42:02;101686.41;;;5.31;100.00
47240;BME280;32978;53.586;10.052;2023-02-03T00:47:00;101667.44;;;5.36;100.00
47240;BME280;32978;53.586;10.052;2023-02-03T00:51:56;101669.44;;;5.45;100.00
47240;BME280;32978;53.586;10.052;2023-02-03T00:56:53;101662.50;;;5.60;100.00
47240;BME280;32978;53.586;10.052;2023-02-03T01:01:49;101654.16;;;5.72;100.00
47240;BME280;32978;53.586;10.052;2023-02-03T01:06:46;101643.66;;;5.85;100.00
47240;BME280;32978;53.586;10.052;2023-02-03T01:11:42;101641.56;;;5.98;100.00
47240;BME280;32978;53.586;10.052;2023-02-03T01:16:39;101635.34;;;6.07;100.00
47240;BME280;32978;53.586;10.052;2023-02-03T01:21:36;101627.53;;;6.16;100.00
47240;BME280;32978;53.586;10.052;2023-02-03T01:26:32;101613.16;;;6.21;100.00
47240;BME280;32978;53.586;10.052;2023-02-03T01:31:34;101596.31;;;6.24;100.00
47240;BME280;32978;53.586;10.052;2023-02-03T01:36:33;101596.88;;;6.31;100.00
47240;BME280;32978;53.586;10.052;2023-02-03T01:41:34;101553.72;;;6.35;100.00
47240;BME280;32978;53.586;10.052;2023-02-03T01:46:34;101539.88;;;6.36;100.00
47240;BME280;32978;53.586;10.052;2023-02-03T01:51:32;101517.03;;;6.32;100.00
47240;BME280;32978;53.586;10.052;2023-02-03T01:56:31;101548.28;;;6.35;100.00
47240;BME280;32978;53.586;10.052;2023-02-03T02:01:30;101539.59;;;6.38;100.00
47240;BME280;32978;53.586;10.052;2023-02-03T02:06:28;101536.88;;;6.38;100.00
47240;BME280;32978;53.586;10.052;2023-02-03T02:11:25;101531.19;;;6.34;100.00
47240;BME280;32978;53.586;10.052;2023-02-03T02:21:57;101548.28;;;6.40;100.00
47240;BME280;32978;53.586;10.052;2023-02-03T02:32:42;101521.94;;;6.35;100.00
47240;BME280;32978;53.586;10.052;2023-02-03T02:43:18;101521.94;;;6.40;100.00
47240;BME280;32978;53.586;10.052;2023-02-03T02:48:27;101506.72;;;6.39;100.00
47240;BME280;32978;53.586;10.052;2023-02-03T02:53:28;101495.88;;;6.39;100.00
47240;BME280;32978;53.586;10.052;2023-02-03T02:58:28;101510.50;;;6.38;100.00
47240;BME280;32978;53.586;10.052;2023-02-03T03:03:26;101481.22;;;6.45;100.00
47240;BME280;32978;53.586;10.052;2023-02-03T03:08:29;101470.88;;;6.42;100.00
47240;BME280;32978;53.586;10.052;2023-02-03T03:13:31;101460.00;;;6.47;100.00
47240;BME280;32978;53.586;10.052;2023-02-03T03:18:36;101451.84;;;6.47;100.00
47240;BME280;32978;53.586;10.052;2023-02-03T03:23:37;101445.59;;;6.52;100.00
47240;BME280;32978;53.586;10.052;2023-02-03T03:28:45;101421.41;;;6.56;100.00
47240;BME280;32978;53.586;10.052;2023-02-03T03:33:43;101425.22;;;6.60;100.00
47240;BME280;32978;53.586;10.052;2023-02-03T03:38:44;101404.28;;;6.60;100.00
47240;BME280;32978;53.586;10.052;2023-02-03T03:43:43;101401.31;;;6.57;100.00
47240;BME280;32978;53.586;10.052;2023-02-03T03:48:52;101399.97;;;6.59;100.00
47240;BME280;32978;53.586;10.052;2023-02-03T03:53:51;101423.03;;;6.51;100.00
47240;BME280;32978;53.586;10.052;2023-02-03T03:58:51;101433.38;;;6.44;100.00
47240;BME280;32978;53.586;10.052;2023-02-03T04:03:53;101421.97;;;6.47;100.00
47240;BME280;32978;53.586;10.052;2023-02-03T04:08:51;101431.22;;;6.46;100.00
47240;BME280;32978;53.586;10.052;2023-02-03T04:13:47;101410.03;;;6.43;100.00
47240;BME280;32978;53.586;10.052;2023-02-03T04:18:44;101404.06;;;6.36;100.00
47240;BME280;32978;53.586;10.052;2023-02-03T04:23:40;101389.94;;;6.34;100.00
47240;BME280;32978;53.586;10.052;2023-02-03T04:28:37;101380.97;;;6.28;100.00
47240;BME280;32978;53.586;10.052;2023-02-03T04:33:33;101363.31;;;6.31;100.00
47240;BME280;32978;53.586;10.052;2023-02-03T04:38:29;101356.25;;;6.30;100.00
47240;BME280;32978;53.586;10.052;2023-02-03T04:43:26;101389.94;;;6.34;100.00
47240;BME280;32978;53.586;10.052;2023-02-03T04:48:22;101375.25;;;6.35;100.00
47240;BME280;32978;53.586;10.052;2023-02-03T04:53:19;101367.66;;;6.37;100.00
47240;BME280;32978;53.586;10.052;2023-02-03T04:58:15;101369.25;;;6.38;100.00
47240;BME280;32978;53.586;10.052;2023-02-03T05:03:12;101343.75;;;6.34;100.00
47240;BME280;32978;53.586;10.052;2023-02-03T05:08:08;101336.97;;;6.31;100.00
47240;BME280;32978;53.586;10.052;2023-02-03T05:13:05;101333.16;;;6.32;100.00
47240;BME280;32978;53.586;10.052;2023-02-03T05:18:01;101319.84;;;6.31;100.00
47240;BME280;32978;53.586;10.052;2023-02-03T05:22:58;101305.19;;;6.32;100.00
47240;BME280;32978;53.586;10.052;2023-02-03T05:27:54;101312.81;;;6.30;100.00
47240;BME280;32978;53.586;10.052;2023-02-03T05:32:51;101333.72;;;6.29;100.00
47240;BME280;32978;53.586;10.052;2023-02-03T05:37:47;101299.75;;;6.32;100.00
47240;BME280;32978;53.586;10.052;2023-02-03T05:42:48;101286.19;;;6.32;100.00
47240;BME280;32978;53.586;10.052;2023-02-03T05:47:44;101288.91;;;6.32;100.00
47240;BME280;32978;53.586;10.052;2023-02-03T05:52:41;101270.44;;;6.34;100.00
47240;BME280;32978;53.586;10.052;2023-02-03T05:57:37;101290.78;;;6.37;100.00
47240;BME280;32978;53.586;10.052;2023-02-03T06:02:34;101282.09;;;6.35;100.00
47240;BME280;32978;53.586;10.052;2023-02-03T06:07:30;101274.22;;;6.33;100.00
47240;BME280;32978;53.586;10.052;2023-02-03T06:12:27;101250.31;;;6.35;100.00
47240;BME280;32978;53.586;10.052;2023-02-03T06:17:24;101237.53;;;6.36;100.00
47240;BME280;32978;53.586;10.052;2023-02-03T06:22:21;101241.09;;;6.36;100.00
47240;BME280;32978;53.586;10.052;2023-02-03T06:27:17;101232.94;;;6.36;100.00
47240;BME280;32978;53.586;10.052;2023-02-03T06:32:13;101232.66;;;6.38;100.00
47240;BME280;32978;53.586;10.052;2023-02-03T06:37:10;101222.06;;;6.41;100.00
47240;BME280;32978;53.586;10.052;2023-02-03T06:42:06;101257.34;;;6.46;100.00
47240;BME280;32978;53.586;10.052;2023-02-03T06:47:03;101218.75;;;6.49;100.00
47240;BME280;32978;53.586;10.052;2023-02-03T06:51:59;101201.91;;;6.52;100.00
47240;BME280;32978;53.586;10.052;2023-02-03T06:56:56;101211.66;;;6.59;100.00
47240;BME280;32978;53.586;10.052;2023-02-03T07:01:52;101192.88;;;6.67;100.00
47240;BME280;32978;53.586;10.052;2023-02-03T07:06:49;101201.81;;;6.73;100.00
47240;BME280;32978;53.586;10.052;2023-02-03T07:11:45;101222.69;;;6.78;100.00
47240;BME280;32978;53.586;10.052;2023-02-03T07:16:42;101199.06;;;6.78;100.00
47240;BME280;32978;53.586;10.052;2023-02-03T07:21:38;101213.19;;;6.80;100.00
47240;BME280;32978;53.586;10.052;2023-02-03T07:26:34;101214.28;;;6.79;100.00
47240;BME280;32978;53.586;10.052;2023-02-03T07:31:31;101196.31;;;6.83;100.00
47240;BME280;32978;53.586;10.052;2023-02-03T07:36:27;101176.19;;;6.84;100.00
47240;BME280;32978;53.586;10.052;2023-02-03T07:41:24;101199.00;;;6.88;100.00
47240;BME280;32978;53.586;10.052;2023-02-03T07:46:20;101193.81;;;6.92;100.00
47240;BME280;32978;53.586;10.052;2023-02-03T07:51:17;101177.75;;;6.95;100.00
47240;BME280;32978;53.586;10.052;2023-02-03T07:56:13;101192.69;;;6.98;100.00
47240;BME280;32978;53.586;10.052;2023-02-03T08:01:15;101189.69;;;7.00;100.00
47240;BME280;32978;53.586;10.052;2023-02-03T08:06:11;101215.75;;;7.01;100.00
47240;BME280;32978;53.586;10.052;2023-02-03T08:11:09;101259.28;;;7.01;100.00
47240;BME280;32978;53.586;10.052;2023-02-03T08:16:06;101258.03;;;6.83;100.00
47240;BME280;32978;53.586;10.052;2023-02-03T08:21:03;101272.50;;;6.63;100.00
47240;BME280;32978;53.586;10.052;2023-02-03T08:26:00;101270.88;;;6.57;100.00
47240;BME280;32978;53.586;10.052;2023-02-03T08:30:56;101248.06;;;6.58;100.00
47240;BME280;32978;53.586;10.052;2023-02-03T08:35:53;101248.63;;;6.55;100.00
47240;BME280;32978;53.586;10.052;2023-02-03T08:40:49;101270.38;;;6.49;100.00
47240;BME280;32978;53.586;10.052;2023-02-03T08:45:46;101267.13;;;6.42;100.00
47240;BME280;32978;53.586;10.052;2023-02-03T08:50:43;101244.00;;;6.55;100.00
47240;BME280;32978;53.586;10.052;2023-02-03T08:55:40;101273.09;;;6.49;100.00
47240;BME280;32978;53.586;10.052;2023-02-03T09:00:36;101268.22;;;6.46;100.00
47240;BME280;32978;53.586;10.052;2023-02-03T09:05:33;101236.19;;;6.43;100.00
47240;BME280;32978;53.586;10.052;2023-02-03T09:10:30;101261.69;;;6.42;100.00
47240;BME280;32978;53.586;10.052;2023-02-03T09:15:26;101247.00;;;6.53;100.00
47240;BME280;32978;53.586;10.052;2023-02-03T09:20:23;101273.66;;;6.46;100.00
47240;BME280;32978;53.586;10.052;2023-02-03T09:25:22;101279.06;;;6.46;100.00
47240;BME280;32978;53.586;10.052;2023-02-03T09:30:18;101248.63;;;6.55;100.00
47240;BME280;32978;53.586;10.052;2023-02-03T09:35:15;101263.28;;;6.53;100.00
47240;BME280;32978;53.586;10.052;2023-02-03T09:40:23;101266.28;;;6.52;100.00
47240;BME280;32978;53.586;10.052;2023-02-03T09:45:28;101299.97;;;6.56;100.00
47240;BME280;32978;53.586;10.052;2023-02-03T09:50:29;101310.03;;;6.56;100.00
47240;BME280;32978;53.586;10.052;2023-02-03T10:00:35;101342.63;;;6.56;100.00
47240;BME280;32978;53.586;10.052;2023-02-03T10:05:45;101309.22;;;6.55;100.00
47240;BME280;32978;53.586;10.052;2023-02-03T10:10:52;101324.69;;;6.60;100.00
47240;BME280;32978;53.586;10.052;2023-02-03T10:21:29;101362.66;;;6.75;100.00
47240;BME280;32978;53.586;10.052;2023-02-03T10:26:27;101369.22;;;6.74;100.00
47240;BME280;32978;53.586;10.052;2023-02-03T10:31:31;101373.53;;;6.75;100.00
47240;BME280;32978;53.586;10.052;2023-02-03T10:41:39;101393.66;;;6.74;100.00
47240;BME280;32978;53.586;10.052;2023-02-03T10:46:38;101381.72;;;6.70;100.00
47240;BME280;32978;53.586;10.052;2023-02-03T10:51:50;101390.41;;;6.72;100.00
47240;BME280;32978;53.586;10.052;2023-02-03T10:56:47;101392.06;;;6.73;100.00
47240;BME280;32978;53.586;10.052;2023-02-03T11:01:46;101391.47;;;6.86;100.00
47240;BME280;32978;53.586;10.052;2023-02-03T11:06:53;101405.00;;;7.02;100.00
47240;BME280;32978;53.586;10.052;2023-02-03T11:12:19;101393.56;;;7.05;100.00
47240;BME280;32978;53.586;10.052;2023-02-03T11:17:22;101394.66;;;7.09;100.00
47240;BME280;32978;53.586;10.052;2023-02-03T11:22:39;101391.91;;;7.14;100.00
47240;BME280;32978;53.586;10.052;2023-02-03T11:27:37;101408.22;;;7.24;100.00
47240;BME280;32978;53.586;10.052;2023-02-03T11:32:35;101407.59;;;7.37;100.00
47240;BME280;32978;53.586;10.052;2023-02-03T11:37:40;101417.16;;;7.30;100.00
47240;BME280;32978;53.586;10.052;2023-02-03T11:42:39;101405.44;;;7.34;100.00
47240;BME280;32978;53.586;10.052;2023-02-03T11:48:04;101413.84;;;7.33;100.00
47240;BME280;32978;53.586;10.052;2023-02-03T12:08:44;101413.94;;;7.18;100.00
47240;BME280;32978;53.586;10.052;2023-02-03T12:14:02;101426.09;;;7.35;100.00
47240;BME280;32978;53.586;10.052;2023-02-03T12:29:28;101447.38;;;7.18;100.00
47240;BME280;32978;53.586;10.052;2023-02-03T12:34:47;101453.66;;;7.08;100.00
47240;BME280;32978;53.586;10.052;2023-02-03T12:39:51;101445.78;;;7.07;100.00
47240;BME280;32978;53.586;10.052;2023-02-03T12:44:56;101478.44;;;6.97;100.00
47240;BME280;32978;53.586;10.052;2023-02-03T12:50:03;101470.28;;;6.91;100.00
47240;BME280;32978;53.586;10.052;2023-02-03T13:00:23;101464.31;;;6.84;100.00
47240;BME280;32978;53.586;10.052;2023-02-03T13:05:36;101477.34;;;6.82;100.00
47240;BME280;32978;53.586;10.052;2023-02-03T13:10:45;101473.28;;;6.80;100.00
47240;BME280;32978;53.586;10.052;2023-02-03T13:15:45;101479.53;;;6.75;100.00
47240;BME280;32978;53.586;10.052;2023-02-03T13:20:45;101489.34;;;6.71;100.00
47240;BME280;32978;53.586;10.052;2023-02-03T13:26:19;101494.50;;;6.72;100.00
47240;BME280;32978;53.586;10.052;2023-02-03T13:31:35;101487.72;;;6.70;100.00
47240;BME280;32978;53.586;10.052;2023-02-03T13:41:51;101503.72;;;6.61;100.00
47240;BME280;32978;53.586;10.052;2023-02-03T13:46:50;101520.88;;;6.62;100.00
47240;BME280;32978;53.586;10.052;2023-02-03T13:51:47;101525.75;;;6.60;100.00
47240;BME280;32978;53.586;10.052;2023-02-03T13:56:53;101537.69;;;6.59;100.00
47240;BME280;32978;53.586;10.052;2023-02-03T14:01:50;101545.31;;;6.57;100.00
47240;BME280;32978;53.586;10.052;2023-02-03T14:11:51;101535.53;;;6.50;100.00
47240;BME280;32978;53.586;10.052;2023-02-03T14:22:30;101525.19;;;6.47;100.00
47240;BME280;32978;53.586;10.052;2023-02-03T14:27:27;101527.38;;;6.45;100.00
47240;BME280;32978;53.586;10.052;2023-02-03T14:37:54;101549.09;;;6.35;100.00
47240;BME280;32978;53.586;10.052;2023-02-03T14:48:29;101559.41;;;6.33;100.00
47240;BME280;32978;53.586;10.052;2023-02-03T14:59:09;101542.56;;;6.31;100.00
47240;BME280;32978;53.586;10.052;2023-02-03T15:14:28;101561.59;;;6.36;100.00
47240;BME280;32978;53.586;10.052;2023-02-03T15:19:33;101555.06;;;6.37;100.00
47240;BME280;32978;53.586;10.052;2023-02-03T15:24:35;101565.13;;;6.37;100.00
47240;BME280;32978;53.586;10.052;2023-02-03T15:29:33;101612.13;;;6.37;100.00
47240;BME280;32978;53.586;10.052;2023-02-03T15:34:35;101596.88;;;6.31;100.00
47240;BME280;32978;53.586;10.052;2023-02-03T15:39:42;101605.03;;;6.31;100.00
47240;BME280;32978;53.586;10.052;2023-02-03T15:44:47;101598.53;;;6.32;100.00
47240;BME280;32978;53.586;10.052;2023-02-03T15:49:45;101599.06;;;6.29;100.00
47240;BME280;32978;53.586;10.052;2023-02-03T15:54:47;101614.28;;;6.30;100.00
47240;BME280;32978;53.586;10.052;2023-02-03T15:59:57;101615.06;;;6.30;100.00
47240;BME280;32978;53.586;10.052;2023-02-03T16:04:55;101631.66;;;6.29;100.00
47240;BME280;32978;53.586;10.052;2023-02-03T16:09:54;101643.34;;;6.29;100.00
47240;BME280;32978;53.586;10.052;2023-02-03T16:14:52;101632.66;;;6.13;100.00
47240;BME280;32978;53.586;10.052;2023-02-03T16:19:49;101645.38;;;6.02;100.00
47240;BME280;32978;53.586;10.052;2023-02-03T16:24:46;101652.72;;;6.01;100.00
47240;BME280;32978;53.586;10.052;2023-02-03T16:29:43;101644.53;;;5.96;100.00
47240;BME280;32978;53.586;10.052;2023-02-03T16:34:58;101683.03;;;5.88;100.00
47240;BME280;32978;53.586;10.052;2023-02-03T16:40:16;101674.22;;;5.70;100.00
47240;BME280;32978;53.586;10.052;2023-02-03T16:45:31;101682.25;;;5.55;100.00
47240;BME280;32978;53.586;10.052;2023-02-03T16:50:47;101714.81;;;5.55;100.00
47240;BME280;32978;53.586;10.052;2023-02-03T16:55:55;101700.59;;;5.43;100.00
47240;BME280;32978;53.586;10.052;2023-02-03T17:00:53;101736.34;;;5.35;100.00
47240;BME280;32978;53.586;10.052;2023-02-03T17:05:50;101744.13;;;5.26;100.00
47240;BME280;32978;53.586;10.052;2023-02-03T17:10:47;101760.31;;;5.16;100.00
47240;BME280;32978;53.586;10.052;2023-02-03T17:15:46;101750.47;;;5.10;100.00
47240;BME280;32978;53.586;10.052;2023-02-03T17:20:45;101773.81;;;5.11;100.00
47240;BME280;32978;53.586;10.052;2023-02-03T17:25:44;101776.25;;;5.12;100.00
47240;BME280;32978;53.586;10.052;2023-02-03T17:30:41;101794.66;;;5.10;100.00
47240;BME280;32978;53.586;10.052;2023-02-03T17:35:41;101806.63;;;5.14;100.00
47240;BME280;32978;53.586;10.052;2023-02-03T17:40:40;101834.56;;;5.15;100.00
47240;BME280;32978;53.586;10.052;2023-02-03T17:45:57;101826.69;;;5.13;100.00
47240;BME280;32978;53.586;10.052;2023-02-03T17:51:18;101835.28;;;5.05;100.00
47240;BME280;32978;53.586;10.052;2023-02-03T17:56:33;101860.25;;;5.07;100.00
47240;BME280;32978;53.586;10.052;2023-02-03T18:01:31;101872.78;;;5.13;100.00
47240;BME280;32978;53.586;10.052;2023-02-03T18:06:28;101878.69;;;5.10;100.00
47240;BME280;32978;53.586;10.052;2023-02-03T18:11:24;101874.38;;;5.09;100.00
47240;BME280;32978;53.586;10.052;2023-02-03T18:16:23;101889.06;;;5.13;100.00
47240;BME280;32978;53.586;10.052;2023-02-03T18:21:25;101893.91;;;5.11;100.00
47240;BME280;32978;53.586;10.052;2023-02-03T18:26:22;101897.19;;;5.13;100.00
47240;BME280;32978;53.586;10.052;2023-02-03T18:31:19;101902.63;;;5.13;100.00
47240;BME280;32978;53.586;10.052;2023-02-03T18:36:16;101923.78;;;5.16;100.00
47240;BME280;32978;53.586;10.052;2023-02-03T18:41:17;101916.75;;;5.15;100.00
47240;BME280;32978;53.586;10.052;2023-02-03T18:46:25;101917.78;;;5.14;100.00
47240;BME280;32978;53.586;10.052;2023-02-03T18:51:24;101941.38;;;5.14;100.00
47240;BME280;32978;53.586;10.052;2023-02-03T18:56:22;101957.31;;;5.10;100.00
47240;BME280;32978;53.586;10.052;2023-02-03T19:01:28;101977.78;;;5.01;100.00
47240;BME280;32978;53.586;10.052;2023-02-03T19:06:27;101980.50;;;5.01;100.00
47240;BME280;32978;53.586;10.052;2023-02-03T19:11:25;102010.41;;;5.06;100.00
47240;BME280;32978;53.586;10.052;2023-02-03T19:16:24;102015.56;;;5.07;100.00
47240;BME280;32978;53.586;10.052;2023-02-03T19:21:21;102031.59;;;5.09;100.00
47240;BME280;32978;53.586;10.052;2023-02-03T19:26:18;102048.84;;;5.03;100.00
47240;BME280;32978;53.586;10.052;2023-02-03T19:31:15;102068.63;;;5.03;100.00
47240;BME280;32978;53.586;10.052;2023-02-03T19:36:13;102061.00;;;5.00;100.00
47240;BME280;32978;53.586;10.052;2023-02-03T19:41:09;102075.97;;;5.03;100.00
47240;BME280;32978;53.586;10.052;2023-02-03T19:46:07;102082.53;;;5.07;100.00
47240;BME280;32978;53.586;10.052;2023-02-03T19:51:04;102095.84;;;5.09;100.00
47240;BME280;32978;53.586;10.052;2023-02-03T19:56:01;102098.81;;;5.07;100.00
47240;BME280;32978;53.586;10.052;2023-02-03T20:00:57;102107.16;;;5.05;100.00
47240;BME280;32978;53.586;10.052;2023-02-03T20:05:54;102109.31;;;5.03;100.00
47240;BME280;32978;53.586;10.052;2023-02-03T20:10:51;102122.63;;;5.05;100.00
47240;BME280;32978;53.586;10.052;2023-02-03T20:15:48;102142.69;;;5.04;100.00
47240;BME280;32978;53.586;10.052;2023-02-03T20:20:50;102150.22;;;5.02;100.00
47240;BME280;32978;53.586;10.052;2023-02-03T20:25:51;102172.56;;;4.92;100.00
47240;BME280;32978;53.586;10.052;2023-02-03T20:30:52;102182.88;;;4.78;100.00
47240;BME280;32978;53.586;10.052;2023-02-03T20:35:49;102205.91;;;4.64;100.00
47240;BME280;32978;53.586;10.052;2023-02-03T20:40:46;102235.00;;;4.57;100.00
47240;BME280;32978;53.586;10.052;2023-02-03T20:45:43;102260.84;;;4.48;100.00
47240;BME280;32978;53.586;10.052;2023-02-03T20:50:42;102258.88;;;4.31;100.00
47240;BME280;32978;53.586;10.052;2023-02-03T20:55:43;102287.34;;;4.34;100.00
47240;BME280;32978;53.586;10.052;2023-02-03T21:00:40;102300.66;;;4.35;100.00
47240;BME280;32978;53.586;10.052;2023-02-03T21:05:39;102318.56;;;4.36;100.00
47240;BME280;32978;53.586;10.052;2023-02-03T21:10:37;102327.84;;;4.17;100.00
47240;BME280;32978;53.586;10.052;2023-02-03T21:15:36;102348.81;;;4.10;100.00
47240;BME280;32978;53.586;10.052;2023-02-03T21:20:33;102350.09;;;4.07;100.00
47240;BME280;32978;53.586;10.052;2023-02-03T21:25:33;102370.94;;;4.07;100.00
47240;BME280;32978;53.586;10.052;2023-02-03T21:30:31;102379.38;;;3.98;100.00
47240;BME280;32978;53.586;10.052;2023-02-03T21:35:34;102395.97;;;3.90;100.00
47240;BME280;32978;53.586;10.052;2023-02-03T21:40:33;102392.28;;;3.73;100.00
47240;BME280;32978;53.586;10.052;2023-02-03T21:45:35;102418.03;;;3.75;100.00
47240;BME280;32978;53.586;10.052;2023-02-03T21:50:35;102433.47;;;3.75;100.00
47240;BME280;32978;53.586;10.052;2023-02-03T21:55:32;102442.81;;;3.61;100.00
47240;BME280;32978;53.586;10.052;2023-02-03T22:00:44;102453.25;;;3.57;100.00
47240;BME280;32978;53.586;10.052;2023-02-03T22:05:45;102456.91;;;3.32;100.00
47240;BME280;32978;53.586;10.052;2023-02-03T22:10:42;102470.03;;;3.10;100.00
47240;BME280;32978;53.586;10.052;2023-02-03T22:15:41;102489.31;;;2.95;100.00
47240;BME280;32978;53.586;10.052;2023-02-03T22:20:38;102517.06;;;2.84;100.00
47240;BME280;32978;53.586;10.052;2023-02-03T22:25:35;102529.00;;;2.77;100.00
47240;BME280;32978;53.586;10.052;2023-02-03T22:30:33;102558.97;;;2.68;100.00
47240;BME280;32978;53.586;10.052;2023-02-03T22:35:30;102571.31;;;2.58;100.00
47240;BME280;32978;53.586;10.052;2023-02-03T22:40:27;102583.19;;;2.50;100.00
47240;BME280;32978;53.586;10.052;2023-02-03T22:45:25;102603.97;;;2.49;100.00
47240;BME280;32978;53.586;10.052;2023-02-03T22:50:21;102611.47;;;2.47;100.00
47240;BME280;32978;53.586;10.052;2023-02-03T22:55:30;102635.63;;;2.36;100.00
47240;BME280;32978;53.586;10.052;2023-02-03T23:00:27;102637.91;;;2.32;100.00
47240;BME280;32978;53.586;10.052;2023-02-03T23:05:24;102635.94;;;2.52;100.00
47240;BME280;32978;53.586;10.052;2023-02-03T23:10:23;102653.53;;;2.62;100.00
47240;BME280;32978;53.586;10.052;2023-02-03T23:15:20;102662.06;;;2.65;100.00
47240;BME280;32978;53.586;10.052;2023-02-03T23:20:16;102662.84;;;2.72;100.00
47240;BME280;32978;53.586;10.052;2023-02-03T23:25:13;102667.59;;;2.77;100.00
47240;BME280;32978;53.586;10.052;2023-02-03T23:30:10;102698.13;;;2.78;100.00
47240;BME280;32978;53.586;10.052;2023-02-03T23:35:07;102698.16;;;2.71;100.00
47240;BME280;32978;53.586;10.052;2023-02-03T23:40:22;102712.31;;;2.66;100.00
47240;BME280;32978;53.586;10.052;2023-02-03T23:45:18;102721.94;;;2.56;100.00
47240;BME280;32978;53.586;10.052;2023-02-03T23:50:15;102733.59;;;2.49;100.00
47240;BME280;32978;53.586;10.052;2023-02-03T23:55:17;102747.41;;;2.66;100.00
